Tuesday, February 20, 2018, 3:37 PM GMT
Back to Local

CYOW, Ottawa Int'L. Ont.

Location: , , Canada Lat: 45.317
Local Time: 3:37 PM GMT (15:37 GMT) Lon: -75.667
Time Zone: GMT Elev: 380 ft

Show me the last for .
Show Decoded

2018-02-20 15:00 METAR CYOW 201500Z 07010KT 6SM -RA BR OVC003 01/01 A3009 RMK SF8 SLP198 =
2018-02-20 14:00 METAR CYOW 201400Z 06008KT 4SM -RA BR OVC003 01/01 A3011 RMK SF8 SLP204 =
2018-02-20 13:00 METAR CYOW 201300Z 08009KT 4SM -RA BR OVC003 01/01 A3011 RMK SF8 SLP204 =
2018-02-20 12:00 METAR CYOW 201200Z 04009KT 6SM -RA BR OVC003 01/01 A3012 RMK SF8 SLP205 =
2018-02-20 11:00 METAR CYOW 201100Z 05007KT 3SM -RA BR OVC003 01/01 A3011 RMK SF8 SLP203 =
2018-02-20 10:00 METAR CYOW 201000Z 06006KT 2SM -RA BR OVC002 01/01 A3011 RMK SF8 SLP203 =
2018-02-20 09:33 METAR CYOW 200933Z 07007KT 1 1/2SM -RA BR SCT006 OVC020 01/01 A3010 RMK SF3SC5
                 SLP200 =
2018-02-20 09:00 METAR CYOW 200900Z 05007KT 3/4SM R32/5000VP6000FT/U R07/4500FT/U -RA BR OVC013
                 01/01 A3011 RMK FG3SF5 SLP202 =
2018-02-20 08:47 METAR CYOW 200847Z 04007KT 3/4SM R32/4500FT/N R07/4000FT/U -RA BR OVC009 01/00
                 A3011 RMK FG3SF5 SLP203 =
2018-02-20 08:00 METAR CYOW 200800Z 04007KT 3/4SM R32/3500FT/N R07/3000FT/U BR VV002 01/00 A3011
                 RMK FG8 SLP202 =
2018-02-20 07:23 METAR CYOW 200723Z 04006KT 5/8SM R32/3500FT/D R07/3500FT/N BR VV002 01/00 A3011
                 RMK FG8 SLP201 =
2018-02-20 07:00 METAR CYOW 200700Z 04005KT 3/4SM R32/3000V4500FT/N R07/4500FT/U BR OVC002 01/01
                 A3010 RMK FG2SF6 SLP200 =
2018-02-20 06:27 METAR CYOW 200627Z 05006KT 3SM BR OVC021 01/01 A3010 RMK SC8 SLP199 =
2018-02-20 06:00 METAR CYOW 200600Z 07006KT 3SM -RA BR OVC020 01/01 A3009 RMK SC8 SLP197 =
2018-02-20 05:00 METAR CYOW 200500Z 05007KT 4SM -RA BR FEW015 OVC025 01/01 A3012 RMK SC2SC6
                 SLP204 =
2018-02-20 04:40 METAR CYOW 200440Z 36005KT 2SM -RA BR OVC003 01/01 A3013 RMK ST8 PRESRR SLP209 =
2018-02-20 04:00 METAR CYOW 200400Z 07006KT 3/4SM R32/3000V4500FT/U R07/2600V5000FT/U -RA BR
                 OVC003 02/01 A3009 RMK FG2ST6 SLP197 =
2018-02-20 03:00 METAR CYOW 200300Z 07005KT 1SM R32/2800V4000FT/D R07/2600V3500FT/D -RA BR OVC003
                 02/01 A3009 RMK FG3ST5 SLP196 =
2018-02-20 02:42 METAR CYOW 200242Z 07005KT 1SM R32/3500FT/N R07/2800V4000FT/N -RA BR OVC003
                 02/01 A3010 RMK FG2ST6 SLP200 =
2018-02-20 02:00 METAR CYOW 200200Z 06004KT 1SM R32/3500VP6000FT/U R07/3500VP6000FT/U -DZ BR
                 OVC003 02/01 A3011 RMK FG3ST5 SLP202 =
2018-02-20 01:11 METAR CYOW 200111Z 09004KT 3/4SM R32/4000FT/N R07/3500V5500FT/U -DZ BR OVC003
                 02/01 A3009 RMK FG3ST5 SLP197 =
2018-02-20 01:00 METAR CYOW 200100Z 09004KT 3SM R32/3500V6000FT/N R07/2600VP6000FT/D -DZ BR
                 OVC003 02/01 A3009 RMK ST8 SLP198 =
2018-02-20 00:00 METAR CYOW 200000Z 11003KT 3SM R32/4500VP6000FT/D -DZ BR OVC006 02/02 A3010 RMK
                 ST8 SLP200 =
2018-02-19 23:33 METAR CYOW 192333Z 14004KT 4SM -DZ BR OVC008 02/02 A3010 RMK ST8 SLP201 =
2018-02-19 23:22 METAR CYOW 192322Z 15005KT 4SM -DZ BR OVC009 03/02 A3010 RMK ST8 SLP200 =
2018-02-19 23:00 METAR CYOW 192300Z 12004KT 080V150 5SM -RA BR OVC012 03/01 A3009 RMK NS8 SLP197
                 =
2018-02-19 22:53 METAR CYOW 192253Z 10004KT 5SM -RA BR OVC013 02/01 A3009 RMK SC8 SLP198 =
2018-02-19 22:38 METAR CYOW 192238Z 11004KT 7SM -RA OVC017 02/01 A3009 RMK SC8 SLP197 =
2018-02-19 22:07 METAR CYOW 192207Z 11005KT 8SM OVC019 02/01 A3008 RMK SC8 SLP194 =
2018-02-19 22:00 METAR CYOW 192200Z 11005KT 8SM OVC020 03/01 A3009 RMK SC8 SLP195 =
2018-02-19 21:52 METAR CYOW 192152Z 12005KT 8SM OVC020 03/01 A3009 RMK SC8 SLP195 =
2018-02-19 21:00 METAR CYOW 192100Z 14005KT 6SM -RA BR OVC024 03/00 A3009 RMK SC8 SLP198 =
2018-02-19 20:00 METAR CYOW 192000Z 20006KT 15SM -RA OVC059 05/M00 A3009 RMK SC8 SLP198 =
2018-02-19 19:32 METAR CYOW 191932Z 21009KT 15SM -RA OVC066 06/M01 A3010 RMK AC8 SLP200 =
2018-02-19 19:00 METAR CYOW 191900Z 21010KT 15SM OVC070 06/M01 A3011 RMK AC8 SLP202 =
2018-02-19 18:00 METAR CYOW 191800Z 20011G16KT 15SM BKN075 OVC120 06/M02 A3010 RMK AC6AC2 SLP200
                 =
2018-02-19 17:00 METAR CYOW 191700Z 20012G17KT 15SM FEW095 BKN120 OVC250 05/M03 A3013 RMK
                 AC2AC3CI3 SLP210 =

Support USWX by starting your Amazon purchase here.